Latest Weather Observations for Mount Hotham AWS

IDV60801

Issued at 6:35 pm EST Wednesday 20 August 2014 (issued every 30 minutes, with the page automatically refreshed every 10 minutes)

About weather observations | Map of weather stations | Latest weather observations for VIC | Other Formats
Station Details ID: 083085 Name: MOUNT HOTHAM Lat: -36.98 Lon: 147.13 Height: 1849.0 m
Data from the previous 72 hours. | See also: Recent months at Mount Hotham AWS
Date/Time
EST
Temp
°C
App
Temp
°C
Dew
Point
Rel
Hum
%
Delta-T
°C
Wind Press
QNH
hPa
Press
MSL
hPa
Rain
since 9 am
mm
Dir
 
Spd
km/h
Gust
km/h
Spd
kts
Gust
kts
20/06:30pm 1.4 -1.3 0.5 94 0.4 W 4 11 2 6 - - 0.2
20/06:00pm 1.1 -2.4 1.0 99 0.0 W 9 13 5 7 - - 0.2
20/05:30pm 1.3 -2.2 1.2 99 0.0 W 9 11 5 6 - - 0.2
20/05:00pm 1.2 -3.5 1.1 99 0.0 W 15 17 8 9 - - 0.2
20/04:30pm 1.4 -2.9 1.0 97 0.2 W 13 17 7 9 - - 0.2
20/04:00pm 1.7 -1.9 0.5 92 0.5 W 9 17 5 9 - - 0.2
20/03:30pm 1.2 -3.3 0.0 92 0.5 WNW 13 15 7 8 - - 0.2
20/03:00pm 2.1 -1.6 -0.3 84 1.0 WNW 9 13 5 7 - - 0.2
20/02:30pm 2.3 -2.2 -0.3 83 1.1 WNW 13 17 7 9 - - 0.2
20/02:00pm 1.6 -2.9 -0.2 88 0.7 WNW 13 19 7 10 - - 0.2
20/01:30pm 1.9 -2.6 -0.2 86 0.9 WNW 13 15 7 8 - - 0.2
20/01:00pm 1.7 -3.2 -0.4 86 0.9 NW 15 19 8 10 - - 0.2
20/12:30pm 1.4 -3.2 -0.7 86 0.9 NW 13 17 7 9 - - 0.2
20/12:00pm 1.2 -3.8 -1.0 85 0.9 NW 15 20 8 11 - - 0.2
20/11:30am 1.2 -3.9 -1.9 80 1.3 NW 15 19 8 10 - - 0.2
20/11:00am 1.1 -4.7 -1.8 81 1.2 NW 19 24 10 13 - - 0.2
20/10:30am 0.9 -5.0 -2.5 78 1.4 NW 19 22 10 12 - - 0.2
20/10:00am 1.0 -4.7 -3.8 70 1.9 NW 17 20 9 11 - - 0.2
20/09:30am 0.3 -5.9 -5.3 66 2.0 NW 19 20 10 11 - - 0.0
20/09:00am -0.5 -6.9 -6.7 63 2.1 WNW 19 20 10 11 - - 2.2
20/08:30am -0.3 -6.7 -12.2 40 3.5 NW 17 17 9 9 - - 2.2
20/08:00am 0.1 -7.3 -19.6 21 4.9 NW 20 20 11 11 - - 2.2
20/07:30am -0.3 -7.7 -20.5 20 4.8 NW 20 20 11 11 - - 2.2
20/07:00am 0.1 -7.1 -21.4 18 5.1 NW 19 20 10 11 - - 2.2
20/06:30am -0.2 -7.4 -21.0 19 4.9 NW 19 20 10 11 - - 2.2
20/06:00am 0.1 -7.2 -22.7 16 5.2 NW 19 20 10 11 - - 2.2
20/05:30am 0.4 -7.1 -23.2 15 5.4 NW 20 20 11 11 - - 2.2
20/05:00am -1.0 -7.9 -21.7 19 4.7 NW 17 19 9 10 - - 2.2
20/04:30am 0.2 -6.4 -24.1 14 5.4 NW 15 17 8 9 - - 2.2
20/04:00am 0.1 -6.4 -23.4 15 5.3 NW 15 17 8 9 - - 2.2
20/03:30am -0.5 -6.7 -23.2 16 5.0 E 13 17 7 9 - - 2.2
20/03:00am 2.1 -3.0 -27.4 9 6.3 E 7 9 4 5 - - 2.2
20/02:30am 2.4 -2.7 -28.5 8 6.5 E 7 7 4 4 - - 2.2
20/02:00am 1.5 -3.9 -22.3 15 5.7 E 9 9 5 5 - - 2.2
20/01:30am 1.6 -3.7 -21.5 16 5.7 E 9 11 5 6 - - 2.2
20/01:00am 0.7 -5.0 -22.2 16 5.4 E 11 13 6 7 - - 2.2
20/12:30am 0.3 -5.8 -21.2 18 5.1 E 13 15 7 8 - - 2.2
20/12:00am 0.3 -5.8 -20.6 19 5.1 ESE 13 17 7 9 - - 2.2
 
Date/Time
EST
Temp
°C
App
Temp
°C
Dew
Point
Rel
Hum
%
Delta-T
°C
Wind Press
QNH
hPa
Press
MSL
hPa
Rain
since 9 am
mm
Dir
 
Spd
km/h
Gust
km/h
Spd
kts
Gust
kts
19/11:30pm -0.1 -7.3 -19.2 22 4.7 ESE 19 20 10 11 - - 2.2
19/11:00pm 0.0 -6.8 -18.6 23 4.7 ESE 17 19 9 10 - - 2.2
19/10:30pm 0.5 -5.4 -17.2 25 4.7 ESE 13 20 7 11 - - 2.2
19/10:00pm -0.2 -6.8 -15.2 31 4.1 E 17 19 9 10 - - 2.2
19/09:30pm -0.8 -7.6 -11.5 44 3.2 E 19 20 10 11 - - 2.2
19/09:00pm -1.0 -8.2 -9.3 53 2.6 E 22 26 12 14 - - 2.2
19/08:30pm -1.7 -8.7 -7.0 67 1.7 E 22 28 12 15 - - 2.2
19/08:00pm -1.1 -7.5 -7.2 63 2.0 E 19 24 10 13 - - 2.2
19/07:30pm -1.1 -7.5 -5.3 73 1.4 ESE 20 22 11 12 - - 2.2
19/07:00pm -0.8 -6.8 -1.4 96 0.2 E 20 22 11 12 - - 2.2
19/06:30pm -1.7 -3.9 -1.8 99 0.0 CALM 0 0 0 0 - - 2.2
19/06:00pm -1.4 -4.4 -1.5 99 0.0 E 4 17 2 9 - - 2.2
19/05:30pm -1.2 -6.6 -1.3 99 0.0 SE 17 19 9 10 - - 2.2
19/05:00pm -0.6 -6.3 -0.7 99 0.0 E 19 20 10 11 - - 2.2
19/04:30pm -0.1 -5.0 -0.2 99 0.0 ESE 15 19 8 10 - - 2.2
19/04:00pm 0.2 -4.6 0.1 99 0.0 SE 15 17 8 9 - - 2.2
19/03:30pm 0.3 -4.9 0.2 99 0.0 SE 17 22 9 12 - - 2.2
19/03:00pm 0.1 -5.1 0.0 99 0.0 SE 17 24 9 13 - - 2.2
19/02:30pm 0.3 -4.9 0.2 99 0.0 SE 17 24 9 13 - - 2.2
19/02:00pm 0.1 -6.8 0.0 99 0.0 ESE 26 32 14 17 - - 2.2
19/01:30pm 0.1 -7.6 0.0 99 0.0 ESE 30 35 16 19 - - 2.2
19/01:00pm 0.1 -7.2 0.0 99 0.0 SE 28 35 15 19 - - 2.2
19/12:30pm 0.1 -7.6 0.0 99 0.0 SE 30 43 16 23 - - 2.2
19/12:00pm 0.0 -8.3 -0.1 99 0.0 ESE 33 43 18 23 - - 2.2
19/11:30am 0.3 -7.7 0.2 99 0.0 SE 32 41 17 22 - - 2.2
19/11:00am 0.2 -7.5 0.1 99 0.0 SE 30 41 16 22 - - 2.2
19/10:30am 0.1 -8.5 0.0 99 0.0 SSE 35 46 19 25 - - 2.2
19/10:00am -0.2 -7.9 -0.3 99 0.0 SSE 30 37 16 20 - - 1.6
19/09:30am -0.2 -6.8 -0.3 99 0.0 SSE 24 28 13 15 - - 0.8
19/09:00am -0.3 -8.0 -0.4 99 0.0 SSE 30 37 16 20 - - 17.8
19/08:30am -0.3 -8.4 -0.4 99 0.0 SSE 32 39 17 21 - - 16.8
19/08:00am -0.2 -8.5 -0.3 99 0.0 SSE 33 41 18 22 - - 16.2
19/07:30am -0.2 -8.9 -0.3 99 0.0 SSE 35 41 19 22 - - 16.0
19/07:00am -0.2 -8.3 -0.3 99 0.0 SSE 32 39 17 21 - - 16.0
19/06:30am -0.2 -8.5 -0.3 99 0.0 SSE 33 39 18 21 - - 16.0
19/06:00am -0.2 -8.3 -0.3 99 0.0 SSE 32 37 17 20 - - 16.0
19/05:30am -0.3 -8.4 -0.4 99 0.0 SSE 32 39 17 21 - - 16.0
19/05:00am -0.3 -8.4 -0.4 99 0.0 SSE 32 39 17 21 - - 16.0
19/04:30am -0.2 -8.3 -0.3 99 0.0 SSE 32 37 17 20 - - 16.0
19/04:00am -0.3 -8.0 -0.4 99 0.0 SSE 30 35 16 19 - - 16.0
19/03:30am -0.3 -8.4 -0.4 99 0.0 SSE 32 39 17 21 - - 16.0
19/03:00am -0.3 -8.6 -0.4 99 0.0 SSE 33 41 18 22 - - 16.0
19/02:30am -0.3 -9.4 -0.4 99 0.0 SSE 37 44 20 24 - - 16.0
19/02:00am -0.3 -9.8 -0.4 99 0.0 SSE 39 46 21 25 - - 16.0
19/01:30am -0.3 -10.1 -0.4 99 0.0 SSE 41 52 22 28 - - 16.0
19/01:00am -0.3 -10.7 -0.4 99 0.0 SSE 44 54 24 29 - - 16.0
19/12:30am -0.3 -10.5 -0.4 99 0.0 SSE 43 54 23 29 - - 16.0
19/12:00am -0.4 -11.2 -0.5 99 0.0 SSE 46 61 25 33 - - 16.0
 
Date/Time
EST
Temp
°C
App
Temp
°C
Dew
Point
Rel
Hum
%
Delta-T
°C
Wind Press
QNH
hPa
Press
MSL
hPa
Rain
since 9 am
mm
Dir
 
Spd
km/h
Gust
km/h
Spd
kts
Gust
kts
18/11:30pm -0.5 -12.1 -0.6 99 0.0 SE 50 59 27 32 - - 16.0
18/11:07pm -0.5 -13.2 -0.6 99 0.0 SE 56 74 30 40 - - 16.0
18/11:00pm -0.4 -13.7 -0.5 99 0.0 SE 59 74 32 40 - - 16.0
18/10:34pm -0.2 -12.5 -0.3 99 0.0 SE 54 89 29 48 - - 15.8
18/10:30pm -0.2 -12.1 -0.3 99 0.0 SE 52 61 28 33 - - 15.8
18/10:00pm 0.0 -11.9 -0.1 99 0.0 SE 52 67 28 36 - - 15.8
18/09:39pm 0.0 -11.5 -0.1 99 0.0 SE 50 70 27 38 - - 15.4
18/09:30pm -0.2 -11.3 -0.3 99 0.0 SE 48 61 26 33 - - 15.4
18/09:00pm 0.0 -10.7 -0.1 99 0.0 SE 46 57 25 31 - - 14.8
18/08:30pm 0.1 -12.7 0.0 99 0.0 SE 57 76 31 41 - - 14.4
18/08:21pm 0.1 -12.5 0.0 99 0.0 SE 56 76 30 41 - - 14.4
18/08:00pm 0.3 -11.5 0.2 99 0.0 SE 52 63 28 34 - - 14.0
18/07:30pm 0.1 -11.4 0.0 99 0.0 SE 50 63 27 34 - - 13.4
18/07:00pm -0.1 -12.4 -0.2 99 0.0 SE 54 74 29 40 - - 13.2
18/06:34pm 0.3 -12.9 0.2 99 0.0 SE 59 78 32 42 - - 13.0
18/06:30pm 0.3 -13.2 0.2 99 0.0 SE 61 78 33 42 - - 13.0
18/06:00pm 0.2 -13.0 0.1 99 0.0 SE 59 83 32 45 - - 12.8
18/05:30pm 0.4 -12.4 0.3 99 0.0 SE 57 76 31 41 - - 12.6
18/05:00pm 0.3 -12.3 0.2 99 0.0 SE 56 76 30 41 - - 12.0
18/04:30pm 0.5 -12.3 0.4 99 0.0 SE 57 87 31 47 - - 11.6
18/04:11pm 0.9 -10.8 0.8 99 0.0 SE 52 70 28 38 - - 11.4
18/04:00pm 0.8 -11.0 0.7 99 0.0 SE 52 65 28 35 - - 11.2
18/03:30pm 0.6 -12.5 0.5 99 0.0 SE 59 78 32 42 - - 10.6
18/03:00pm 0.6 -12.5 0.5 99 0.0 SE 59 80 32 43 - - 10.4
18/02:49pm 0.7 -11.8 0.6 99 0.0 SE 56 74 30 40 - - 10.2
18/02:30pm 0.6 -10.8 0.5 99 0.0 SE 50 65 27 35 - - 10.0
18/02:00pm 0.5 -10.9 0.4 99 0.0 SE 50 61 27 33 - - 9.8
18/01:30pm 0.3 -12.3 0.2 99 0.0 SE 56 76 30 41 - - 9.8
18/01:00pm 0.5 -12.1 0.4 99 0.0 SE 56 85 30 46 - - 9.8
18/12:58pm 0.5 -11.7 0.4 99 0.0 SE 54 85 29 46 - - 9.8
18/12:33pm 0.7 -9.9 0.6 99 0.0 SE 46 67 25 36 - - 9.6
18/12:30pm 0.6 -9.7 0.5 99 0.0 SE 44 61 24 33 - - 9.6
18/12:00pm 0.6 -11.6 0.5 99 0.0 SE 54 82 29 44 - - 9.6
18/11:30am 1.0 -11.1 0.9 99 0.0 SE 54 76 29 41 - - 9.6
18/11:00am 0.7 -11.1 0.6 99 0.0 SE 52 70 28 38 - - 9.4
18/10:43am 0.5 -11.7 0.4 99 0.0 SE 54 72 29 39 - - 8.6
18/10:30am -0.1 -11.6 -0.2 99 0.0 SE 50 67 27 36 - - 8.2
18/10:26am -0.2 -11.0 -0.3 99 0.0 SE 46 65 25 35 - - 8.2
18/10:00am -0.2 -10.6 -0.3 99 0.0 SE 44 56 24 30 - - 6.0
18/09:30am -0.2 -9.6 -0.3 99 0.0 SE 39 48 21 26 - - 0.0
18/09:00am -0.3 -11.1 -0.4 99 0.0 SE 46 59 25 32 - - 1.4
18/08:30am -0.2 -11.3 -0.3 99 0.0 SE 48 61 26 33 - - 1.4
18/08:00am -0.2 -12.1 -0.3 99 0.0 SE 52 61 28 33 - - 1.4
18/07:30am -0.2 -12.9 -0.3 99 0.0 SE 56 69 30 37 - - 1.4
18/07:00am -0.2 -12.5 -0.3 99 0.0 SE 54 69 29 37 - - 1.4
18/06:50am -0.2 -12.5 -0.3 99 0.0 SE 54 72 29 39 - - 1.4
18/06:30am -0.2 -12.9 -0.3 99 0.0 SSE 56 72 30 39 - - 1.4
18/06:12am -0.2 -12.5 -0.3 99 0.0 SSE 54 72 29 39 - - 1.4
18/06:00am -0.2 -11.3 -0.3 99 0.0 SSE 48 56 26 30 - - 1.4
18/05:30am -0.3 -9.8 -0.4 99 0.0 SSE 39 48 21 26 - - 1.4
18/05:00am -0.4 -10.6 -0.5 99 0.0 SSE 43 50 23 27 - - 1.4
18/04:30am -0.5 -10.9 -0.6 99 0.0 SSE 44 56 24 30 - - 1.4
18/04:00am -0.7 -11.5 -0.8 99 0.0 SSE 46 57 25 31 - - 1.4
18/03:30am -0.9 -10.4 -1.0 99 0.0 SSE 39 46 21 25 - - 1.4
18/03:00am -1.0 -10.9 -1.1 99 0.0 SSE 41 48 22 26 - - 1.4
18/02:30am -1.2 -10.8 -1.3 99 0.0 SSE 39 44 21 24 - - 1.4
18/02:00am -1.1 -9.9 -1.2 99 0.0 SSE 35 43 19 23 - - 1.4
18/01:30am -1.1 -9.9 -1.2 99 0.0 SSE 35 44 19 24 - - 1.4
18/01:00am -1.1 -9.9 -1.2 99 0.0 SSE 35 50 19 27 - - 1.4
18/12:30am -1.0 -10.5 -1.1 99 0.0 SSE 39 46 21 25 - - 1.4
18/12:00am -1.2 -11.2 -1.3 99 0.0 SE 41 50 22 27 - - 1.4
 
Date/Time
EST
Temp
°C
App
Temp
°C
Dew
Point
Rel
Hum
%
Delta-T
°C
Wind Press
QNH
hPa
Press
MSL
hPa
Rain
since 9 am
mm
Dir
 
Spd
km/h
Gust
km/h
Spd
kts
Gust
kts
17/11:30pm -1.3 -11.3 -1.4 99 0.0 SE 41 50 22 27 - - 1.4
17/11:00pm -1.2 -11.2 -1.3 99 0.0 SE 41 50 22 27 - - 1.4
17/10:30pm -1.1 -11.6 -1.2 99 0.0 SE 44 52 24 28 - - 1.4
17/10:00pm -1.2 -12.5 -1.3 99 0.0 SE 48 57 26 31 - - 1.4
17/09:30pm -1.2 -12.5 -1.3 99 0.0 SE 48 61 26 33 - - 1.4
17/09:00pm -1.3 -11.6 -1.4 99 0.0 SSE 43 52 23 28 - - 1.4
17/08:30pm -1.3 -12.2 -1.4 99 0.0 SSE 46 56 25 30 - - 1.4
17/08:00pm -1.4 -12.7 -1.5 99 0.0 SE 48 56 26 30 - - 1.4
17/07:30pm -1.3 -12.2 -1.4 99 0.0 SE 46 56 25 30 - - 1.4
17/07:00pm -1.1 -11.4 -1.2 99 0.0 SE 43 54 23 29 - - 1.4

Other Formats:

Comma delimited format used in spreadsheet applications
http://www.bom.gov.au/fwo/IDV60801/IDV60801.94906.axf

JavaScript Object Notation format (JSON) in row-major order
http://www.bom.gov.au/fwo/IDV60801/IDV60801.94906.json